PWSweather.com
Personal Weather Stations
Station Observations
NEWFAL01
Newton Falls, OH 44444

Newton Falls, OH 44444

Lat: 41.19902, Lon: -80.97668

Elevation: 920

Station Type: Vantage Pro 2

http://www.mvweathercenter.com

High Low Average
Temperature 56.3°F13.5°C 37.2°F2.9°C 45.9°F7.7°C
Dew Point 48.3°F9.1°C 34.3°F1.3°C 40.9°F4.9°C
Winds 6.9 mph 11.1 kmh Calm Calm 1.0 mph N1.6 kmh N
Wind Gusts 16.1 mph25.9 kmh -- 2.0 mph3.2 kmh
Humidity 91% 71% 83%
Pressure 30.06 in1017.9 mb 29.57 in1001.4 mb -
Precipitation 0.00 in0.0 mm - -
Hour Temp Dew Point Humidity Winds Wind Gusts Pressure Precip Precip Rate Daily Precip Total
12:00 AM 38.0°F3.3°C 34.8°F1.6°C 88% Calm Calm -- 30.06 in1017.9 mb - 0.00 in0.0 mm 0.00 in0.0 mm
12:10 AM 38.1°F3.4°C 34.9°F1.6°C 88% Calm Calm -- 30.06 in1017.9 mb - 0.00 in0.0 mm 0.00 in0.0 mm
12:15 AM 38.1°F3.4°C 34.9°F1.6°C 88% Calm Calm -- 30.05 in1017.6 mb - 0.00 in0.0 mm 0.00 in0.0 mm
12:20 AM 38.1°F3.4°C 34.9°F1.6°C 88% Calm Calm -- 30.05 in1017.6 mb - 0.00 in0.0 mm 0.00 in0.0 mm
12:25 AM 38.0°F3.3°C 34.8°F1.6°C 88% Calm Calm -- 30.05 in1017.6 mb - 0.00 in0.0 mm 0.00 in0.0 mm
12:30 AM 38.0°F3.3°C 34.8°F1.6°C 88% Calm Calm -- 30.05 in1017.6 mb - 0.00 in0.0 mm 0.00 in0.0 mm
12:35 AM 38.0°F3.3°C 34.8°F1.6°C 88% Calm Calm -- 30.05 in1017.6 mb - 0.00 in0.0 mm 0.00 in0.0 mm
12:40 AM 38.1°F3.4°C 34.9°F1.6°C 88% Calm Calm -- 30.05 in1017.6 mb - 0.00 in0.0 mm 0.00 in0.0 mm
12:45 AM 38.2°F3.4°C 35.2°F1.8°C 89% Calm Calm -- 30.05 in1017.6 mb - 0.00 in0.0 mm 0.00 in0.0 mm
12:50 AM 38.3°F3.5°C 35.3°F1.8°C 89% Calm Calm -- 30.05 in1017.6 mb - 0.00 in0.0 mm 0.00 in0.0 mm
12:55 AM 38.3°F3.5°C 35.3°F1.8°C 89% Calm Calm -- 30.04 in1017.3 mb - 0.00 in0.0 mm 0.00 in0.0 mm
01:00 AM 38.3°F3.5°C 35.3°F1.8°C 89% Calm Calm -- 30.04 in1017.3 mb - 0.00 in0.0 mm 0.00 in0.0 mm
01:10 AM 38.1°F3.4°C 34.9°F1.6°C 88% Calm Calm -- 30.04 in1017.3 mb - 0.00 in0.0 mm 0.00 in0.0 mm
01:15 AM 38.0°F3.3°C 34.8°F1.6°C 88% Calm Calm -- 30.04 in1017.3 mb - 0.00 in0.0 mm 0.00 in0.0 mm
01:20 AM 38.0°F3.3°C 34.8°F1.6°C 88% Calm Calm -- 30.03 in1016.9 mb - 0.00 in0.0 mm 0.00 in0.0 mm
01:25 AM 38.0°F3.3°C 35.0°F1.7°C 89% Calm Calm -- 30.03 in1016.9 mb - 0.00 in0.0 mm 0.00 in0.0 mm
01:30 AM 38.0°F3.3°C 35.0°F1.7°C 89% Calm Calm -- 30.03 in1016.9 mb - 0.00 in0.0 mm 0.00 in0.0 mm
01:35 AM 38.1°F3.4°C 35.1°F1.7°C 89% Calm Calm -- 30.03 in1016.9 mb - 0.00 in0.0 mm 0.00 in0.0 mm
01:40 AM 38.1°F3.4°C 35.2°F1.8°C 89% Calm Calm -- 30.03 in1016.9 mb - 0.00 in0.0 mm 0.00 in0.0 mm
01:45 AM 38.2°F3.4°C 35.2°F1.8°C 89% Calm Calm -- 30.03 in1016.9 mb - 0.00 in0.0 mm 0.00 in0.0 mm
01:50 AM 38.2°F3.4°C 35.2°F1.8°C 89% Calm Calm -- 30.03 in1016.9 mb - 0.00 in0.0 mm 0.00 in0.0 mm
01:55 AM 38.2°F3.4°C 35.2°F1.8°C 89% Calm Calm -- 30.02 in1016.6 mb - 0.00 in0.0 mm 0.00 in0.0 mm
02:00 AM 38.2°F3.4°C 35.2°F1.8°C 89% Calm Calm -- 30.02 in1016.6 mb - 0.00 in0.0 mm 0.00 in0.0 mm
02:10 AM 38.2°F3.4°C 35.2°F1.8°C 89% Calm Calm -- 30.03 in1016.9 mb - 0.00 in0.0 mm 0.00 in0.0 mm
02:15 AM 38.2°F3.4°C 35.2°F1.8°C 89% Calm Calm -- 30.03 in1016.9 mb - 0.00 in0.0 mm 0.00 in0.0 mm
02:20 AM 38.2°F3.4°C 35.2°F1.8°C 89% Calm Calm -- 30.02 in1016.6 mb - 0.00 in0.0 mm 0.00 in0.0 mm
02:25 AM 38.0°F3.3°C 35.0°F1.7°C 89% Calm Calm -- 30.03 in1016.9 mb - 0.00 in0.0 mm 0.00 in0.0 mm
02:30 AM 38.0°F3.3°C 35.0°F1.7°C 89% Calm Calm -- 30.02 in1016.6 mb - 0.00 in0.0 mm 0.00 in0.0 mm
02:35 AM 38.0°F3.3°C 35.0°F1.7°C 89% Calm Calm -- 30.02 in1016.6 mb - 0.00 in0.0 mm 0.00 in0.0 mm
02:40 AM 38.0°F3.3°C 35.0°F1.7°C 89% Calm Calm -- 30.02 in1016.6 mb - 0.00 in0.0 mm 0.00 in0.0 mm
02:45 AM 37.9°F3.3°C 35.0°F1.7°C 89% Calm Calm -- 30.02 in1016.6 mb - 0.00 in0.0 mm 0.00 in0.0 mm
02:50 AM 37.9°F3.3°C 34.9°F1.6°C 89% Calm Calm -- 30.02 in1016.6 mb - 0.00 in0.0 mm 0.00 in0.0 mm
02:55 AM 37.9°F3.3°C 34.9°F1.6°C 89% Calm Calm -- 30.02 in1016.6 mb - 0.00 in0.0 mm 0.00 in0.0 mm
03:00 AM 37.9°F3.3°C 34.9°F1.6°C 89% Calm Calm -- 30.02 in1016.6 mb - 0.00 in0.0 mm 0.00 in0.0 mm
03:10 AM 37.8°F3.2°C 34.9°F1.6°C 89% Calm Calm -- 30.02 in1016.6 mb - 0.00 in0.0 mm 0.00 in0.0 mm
03:15 AM 37.9°F3.3°C 34.9°F1.6°C 89% Calm Calm -- 30.02 in1016.6 mb - 0.00 in0.0 mm 0.00 in0.0 mm
03:20 AM 37.9°F3.3°C 34.9°F1.6°C 89% Calm Calm -- 30.02 in1016.6 mb - 0.00 in0.0 mm 0.00 in0.0 mm
03:25 AM 37.9°F3.3°C 35.0°F1.7°C 89% Calm Calm -- 30.02 in1016.6 mb - 0.00 in0.0 mm 0.00 in0.0 mm
03:30 AM 37.9°F3.3°C 34.9°F1.6°C 89% Calm Calm -- 30.01 in1016.3 mb - 0.00 in0.0 mm 0.00 in0.0 mm
03:35 AM 37.9°F3.3°C 34.9°F1.6°C 89% Calm Calm -- 30.01 in1016.3 mb - 0.00 in0.0 mm 0.00 in0.0 mm
03:40 AM 37.8°F3.2°C 34.9°F1.6°C 89% Calm Calm -- 30.01 in1016.3 mb - 0.00 in0.0 mm 0.00 in0.0 mm
03:45 AM 37.9°F3.3°C 34.9°F1.6°C 89% Calm Calm -- 30.01 in1016.3 mb - 0.00 in0.0 mm 0.00 in0.0 mm
03:50 AM 37.9°F3.3°C 34.9°F1.6°C 89% Calm Calm -- 30.01 in1016.3 mb - 0.00 in0.0 mm 0.00 in0.0 mm
03:55 AM 37.9°F3.3°C 34.9°F1.6°C 89% Calm Calm -- 30.00 in1015.9 mb - 0.00 in0.0 mm 0.00 in0.0 mm
04:00 AM 38.0°F3.3°C 35.0°F1.7°C 89% Calm Calm -- 30.00 in1015.9 mb - 0.00 in0.0 mm 0.00 in0.0 mm
04:10 AM 38.1°F3.4°C 35.1°F1.7°C 89% Calm Calm -- 30.00 in1015.9 mb - 0.00 in0.0 mm 0.00 in0.0 mm
04:15 AM 38.1°F3.4°C 35.1°F1.7°C 89% Calm Calm -- 30.00 in1015.9 mb - 0.00 in0.0 mm 0.00 in0.0 mm
04:20 AM 38.1°F3.4°C 35.1°F1.7°C 89% Calm Calm -- 30.00 in1015.9 mb - 0.00 in0.0 mm 0.00 in0.0 mm
04:25 AM 38.0°F3.3°C 35.1°F1.7°C 89% Calm Calm -- 30.00 in1015.9 mb - 0.00 in0.0 mm 0.00 in0.0 mm
04:30 AM 38.0°F3.3°C 35.0°F1.7°C 89% Calm Calm -- 30.00 in1015.9 mb - 0.00 in0.0 mm 0.00 in0.0 mm
04:35 AM 37.9°F3.3°C 34.9°F1.6°C 89% Calm Calm -- 30.00 in1015.9 mb - 0.00 in0.0 mm 0.00 in0.0 mm
04:40 AM 37.9°F3.3°C 34.9°F1.6°C 89% Calm Calm -- 30.00 in1015.9 mb - 0.00 in0.0 mm 0.00 in0.0 mm
04:45 AM 37.8°F3.2°C 34.8°F1.6°C 89% Calm Calm -- 30.00 in1015.9 mb - 0.00 in0.0 mm 0.00 in0.0 mm
04:50 AM 37.9°F3.3°C 34.9°F1.6°C 89% Calm Calm -- 30.00 in1015.9 mb - 0.00 in0.0 mm 0.00 in0.0 mm
04:55 AM 37.9°F3.3°C 34.9°F1.6°C 89% Calm Calm -- 30.00 in1015.9 mb - 0.00 in0.0 mm 0.00 in0.0 mm
05:00 AM 37.8°F3.2°C 34.8°F1.6°C 89% Calm Calm -- 30.00 in1015.9 mb - 0.00 in0.0 mm 0.00 in0.0 mm
05:10 AM 37.6°F3.1°C 34.7°F1.5°C 89% Calm Calm -- 30.00 in1015.9 mb - 0.00 in0.0 mm 0.00 in0.0 mm
05:15 AM 37.6°F3.1°C 34.7°F1.5°C 89% Calm Calm -- 30.00 in1015.9 mb - 0.00 in0.0 mm 0.00 in0.0 mm
05:20 AM 37.6°F3.1°C 34.7°F1.5°C 89% Calm Calm -- 30.00 in1015.9 mb - 0.00 in0.0 mm 0.00 in0.0 mm
05:25 AM 37.6°F3.1°C 34.7°F1.5°C 89% Calm Calm -- 29.99 in1015.6 mb - 0.00 in0.0 mm 0.00 in0.0 mm
05:30 AM 37.6°F3.1°C 34.7°F1.5°C 89% Calm Calm -- 30.00 in1015.9 mb - 0.00 in0.0 mm 0.00 in0.0 mm
05:35 AM 37.5°F3.1°C 34.6°F1.4°C 89% Calm Calm -- 30.00 in1015.9 mb - 0.00 in0.0 mm 0.00 in0.0 mm
05:40 AM 37.4°F3.0°C 34.5°F1.4°C 89% Calm Calm -- 30.00 in1015.9 mb - 0.00 in0.0 mm 0.00 in0.0 mm
05:45 AM 37.4°F3.0°C 34.5°F1.4°C 89% Calm Calm -- 30.00 in1015.9 mb - 0.00 in0.0 mm 0.00 in0.0 mm
05:50 AM 37.5°F3.1°C 34.6°F1.4°C 89% Calm Calm -- 30.00 in1015.9 mb - 0.00 in0.0 mm 0.00 in0.0 mm
05:55 AM 37.5°F3.1°C 34.6°F1.4°C 89% Calm Calm -- 30.00 in1015.9 mb - 0.00 in0.0 mm 0.00 in0.0 mm
06:00 AM 37.4°F3.0°C 34.5°F1.4°C 89% Calm Calm -- 30.00 in1015.9 mb - 0.00 in0.0 mm 0.00 in0.0 mm
06:10 AM 37.3°F2.9°C 34.4°F1.3°C 89% Calm Calm -- 30.00 in1015.9 mb - 0.00 in0.0 mm 0.00 in0.0 mm
06:15 AM 37.3°F2.9°C 34.4°F1.3°C 89% Calm Calm -- 30.00 in1015.9 mb - 0.00 in0.0 mm 0.00 in0.0 mm
06:20 AM 37.3°F2.9°C 34.4°F1.3°C 89% Calm Calm -- 30.00 in1015.9 mb - 0.00 in0.0 mm 0.00 in0.0 mm
06:25 AM 37.3°F2.9°C 34.4°F1.3°C 89% Calm Calm -- 30.00 in1015.9 mb - 0.00 in0.0 mm 0.00 in0.0 mm
06:30 AM 37.2°F2.9°C 34.3°F1.3°C 89% Calm Calm -- 29.99 in1015.6 mb - 0.00 in0.0 mm 0.00 in0.0 mm
06:35 AM 37.2°F2.9°C 34.3°F1.3°C 89% Calm Calm -- 29.99 in1015.6 mb - 0.00 in0.0 mm 0.00 in0.0 mm
06:40 AM 37.3°F2.9°C 34.4°F1.3°C 89% Calm Calm -- 29.99 in1015.6 mb - 0.00 in0.0 mm 0.00 in0.0 mm
06:45 AM 37.2°F2.9°C 34.3°F1.3°C 89% Calm Calm -- 29.99 in1015.6 mb - 0.00 in0.0 mm 0.00 in0.0 mm
06:50 AM 37.2°F2.9°C 34.3°F1.3°C 89% Calm Calm -- 29.99 in1015.6 mb - 0.00 in0.0 mm 0.00 in0.0 mm
06:55 AM 37.2°F2.9°C 34.3°F1.3°C 89% Calm Calm -- 29.99 in1015.6 mb - 0.00 in0.0 mm 0.00 in0.0 mm
07:00 AM 37.2°F2.9°C 34.3°F1.3°C 89% Calm Calm -- 29.99 in1015.6 mb - 0.00 in0.0 mm 0.00 in0.0 mm
07:10 AM 37.2°F2.9°C 34.3°F1.3°C 89% Calm Calm -- 29.98 in1015.2 mb - 0.00 in0.0 mm 0.00 in0.0 mm
07:15 AM 37.2°F2.9°C 34.3°F1.3°C 89% Calm Calm -- 29.99 in1015.6 mb - 0.00 in0.0 mm 0.00 in0.0 mm
07:20 AM 37.3°F2.9°C 34.4°F1.3°C 89% Calm Calm -- 29.99 in1015.6 mb - 0.00 in0.0 mm 0.00 in0.0 mm
07:25 AM 37.3°F2.9°C 34.4°F1.3°C 89% Calm Calm -- 29.98 in1015.2 mb - 0.00 in0.0 mm 0.00 in0.0 mm
07:30 AM 37.3°F2.9°C 34.4°F1.3°C 89% Calm Calm -- 29.98 in1015.2 mb - 0.00 in0.0 mm 0.00 in0.0 mm
07:35 AM 37.2°F2.9°C 34.3°F1.3°C 89% Calm Calm -- 29.98 in1015.2 mb - 0.00 in0.0 mm 0.00 in0.0 mm
07:40 AM 37.2°F2.9°C 34.3°F1.3°C 89% Calm Calm -- 29.98 in1015.2 mb - 0.00 in0.0 mm 0.00 in0.0 mm
07:45 AM 37.3°F2.9°C 34.4°F1.3°C 89% Calm Calm -- 29.98 in1015.2 mb - 0.00 in0.0 mm 0.00 in0.0 mm
07:50 AM 37.3°F2.9°C 34.4°F1.3°C 89% Calm Calm -- 29.97 in1014.9 mb - 0.00 in0.0 mm 0.00 in0.0 mm
07:55 AM 37.3°F2.9°C 34.4°F1.3°C 89% Calm Calm -- 29.97 in1014.9 mb - 0.00 in0.0 mm 0.00 in0.0 mm
08:00 AM 37.3°F2.9°C 34.4°F1.3°C 89% Calm Calm -- 29.97 in1014.9 mb - 0.00 in0.0 mm 0.00 in0.0 mm
08:10 AM 37.3°F2.9°C 34.4°F1.3°C 89% Calm Calm -- 29.97 in1014.9 mb - 0.00 in0.0 mm 0.00 in0.0 mm
08:15 AM 37.4°F3.0°C 34.5°F1.4°C 89% Calm Calm -- 29.97 in1014.9 mb - 0.00 in0.0 mm 0.00 in0.0 mm
08:20 AM 37.4°F3.0°C 34.5°F1.4°C 89% Calm Calm -- 29.97 in1014.9 mb - 0.00 in0.0 mm 0.00 in0.0 mm
08:25 AM 37.4°F3.0°C 34.5°F1.4°C 89% Calm Calm -- 29.97 in1014.9 mb - 0.00 in0.0 mm 0.00 in0.0 mm
08:30 AM 37.5°F3.1°C 34.8°F1.6°C 90% Calm Calm -- 29.97 in1014.9 mb - 0.00 in0.0 mm 0.00 in0.0 mm
08:35 AM 37.5°F3.1°C 34.8°F1.6°C 90% Calm Calm -- 29.98 in1015.2 mb - 0.00 in0.0 mm 0.00 in0.0 mm
08:40 AM 37.6°F3.1°C 34.9°F1.6°C 90% Calm Calm -- 29.98 in1015.2 mb - 0.00 in0.0 mm 0.00 in0.0 mm
08:45 AM 37.7°F3.2°C 35.0°F1.7°C 90% Calm Calm -- 29.97 in1014.9 mb - 0.00 in0.0 mm 0.00 in0.0 mm
08:50 AM 37.9°F3.3°C 34.9°F1.6°C 89% Calm Calm -- 29.97 in1014.9 mb - 0.00 in0.0 mm 0.00 in0.0 mm
08:55 AM 38.0°F3.3°C 35.3°F1.8°C 90% Calm Calm -- 29.97 in1014.9 mb - 0.00 in0.0 mm 0.00 in0.0 mm
09:00 AM 38.2°F3.4°C 35.5°F1.9°C 90% Calm Calm -- 29.97 in1014.9 mb - 0.00 in0.0 mm 0.00 in0.0 mm
09:10 AM 38.6°F3.7°C 35.9°F2.2°C 90% Calm Calm -- 29.97 in1014.9 mb - 0.00 in0.0 mm 0.00 in0.0 mm
09:15 AM 38.8°F3.8°C 36.1°F2.3°C 90% Calm Calm -- 29.97 in1014.9 mb - 0.00 in0.0 mm 0.00 in0.0 mm
09:20 AM 38.9°F3.8°C 36.2°F2.3°C 90% Calm Calm -- 29.97 in1014.9 mb - 0.00 in0.0 mm 0.00 in0.0 mm
09:25 AM 39.2°F4.0°C 36.5°F2.5°C 90% Calm Calm -- 29.97 in1014.9 mb - 0.00 in0.0 mm 0.00 in0.0 mm
09:30 AM 39.5°F4.2°C 36.8°F2.7°C 90% Calm Calm -- 29.97 in1014.9 mb - 0.00 in0.0 mm 0.00 in0.0 mm
09:35 AM 39.7°F4.3°C 37.0°F2.8°C 90% Calm Calm -- 29.97 in1014.9 mb - 0.00 in0.0 mm 0.00 in0.0 mm
09:40 AM 39.9°F4.4°C 37.2°F2.9°C 90% Calm Calm -- 29.97 in1014.9 mb - 0.00 in0.0 mm 0.00 in0.0 mm
09:45 AM 40.2°F4.6°C 37.5°F3.1°C 90% Calm Calm -- 29.97 in1014.9 mb - 0.00 in0.0 mm 0.00 in0.0 mm
09:50 AM 40.4°F4.7°C 37.7°F3.2°C 90% Calm Calm -- 29.97 in1014.9 mb - 0.00 in0.0 mm 0.00 in0.0 mm
09:55 AM 40.6°F4.8°C 37.9°F3.3°C 90% Calm Calm -- 29.97 in1014.9 mb - 0.00 in0.0 mm 0.00 in0.0 mm
10:00 AM 40.7°F4.8°C 38.0°F3.3°C 90% Calm Calm -- 29.97 in1014.9 mb - 0.00 in0.0 mm 0.00 in0.0 mm
10:10 AM 41.0°F5.0°C 38.3°F3.5°C 90% Calm Calm -- 29.97 in1014.9 mb - 0.00 in0.0 mm 0.00 in0.0 mm
10:15 AM 41.1°F5.1°C 38.4°F3.6°C 90% Calm Calm -- 29.97 in1014.9 mb - 0.00 in0.0 mm 0.00 in0.0 mm
10:20 AM 41.4°F5.2°C 38.7°F3.7°C 90% Calm Calm -- 29.97 in1014.9 mb - 0.00 in0.0 mm 0.00 in0.0 mm
10:25 AM 41.6°F5.3°C 38.9°F3.8°C 90% Calm Calm -- 29.97 in1014.9 mb - 0.00 in0.0 mm 0.00 in0.0 mm
10:30 AM 41.9°F5.5°C 39.1°F3.9°C 90% Calm Calm -- 29.96 in1014.6 mb - 0.00 in0.0 mm 0.00 in0.0 mm
10:35 AM 42.2°F5.7°C 39.5°F4.2°C 90% Calm Calm -- 29.96 in1014.6 mb - 0.00 in0.0 mm 0.00 in0.0 mm
10:40 AM 42.6°F5.9°C 39.9°F4.4°C 90% Calm Calm -- 29.96 in1014.6 mb - 0.00 in0.0 mm 0.00 in0.0 mm
10:45 AM 43.0°F6.1°C 40.2°F4.6°C 90% Calm Calm -- 29.96 in1014.6 mb - 0.00 in0.0 mm 0.00 in0.0 mm
10:50 AM 43.4°F6.3°C 40.7°F4.8°C 90% Calm Calm -- 29.96 in1014.6 mb - 0.00 in0.0 mm 0.00 in0.0 mm
10:55 AM 43.9°F6.6°C 41.2°F5.1°C 90% Calm Calm -- 29.96 in1014.6 mb - 0.00 in0.0 mm 0.00 in0.0 mm
11:00 AM 44.6°F7.0°C 42.1°F5.6°C 91% Calm Calm -- 29.95 in1014.2 mb - 0.00 in0.0 mm 0.00 in0.0 mm
11:10 AM 45.7°F7.6°C 43.2°F6.2°C 91% Calm Calm -- 29.95 in1014.2 mb - 0.00 in0.0 mm 0.00 in0.0 mm
11:15 AM 46.4°F8.0°C 43.9°F6.6°C 91% Calm Calm -- 29.95 in1014.2 mb - 0.00 in0.0 mm 0.00 in0.0 mm
11:20 AM 47.1°F8.4°C 44.6°F7.0°C 91% Calm Calm -- 29.94 in1013.9 mb - 0.00 in0.0 mm 0.00 in0.0 mm
11:25 AM 47.6°F8.7°C 45.1°F7.3°C 91% Calm Calm -- 29.94 in1013.9 mb - 0.00 in0.0 mm 0.00 in0.0 mm
11:30 AM 48.1°F8.9°C 45.6°F7.6°C 91% 2.3 mph N3.7 kmh N 4.6 mph7.4 kmh 29.93 in1013.5 mb - 0.00 in0.0 mm 0.00 in0.0 mm
11:35 AM 48.5°F9.2°C 46.0°F7.8°C 91% 2.3 mph N3.7 kmh N 4.6 mph7.4 kmh 29.93 in1013.5 mb - 0.00 in0.0 mm 0.00 in0.0 mm
11:40 AM 48.7°F9.3°C 46.2°F7.9°C 91% 4.6 mph N7.4 kmh N 5.8 mph9.3 kmh 29.93 in1013.5 mb - 0.00 in0.0 mm 0.00 in0.0 mm
11:45 AM 49.0°F9.4°C 46.5°F8.1°C 91% 4.6 mph N7.4 kmh N 5.8 mph9.3 kmh 29.92 in1013.2 mb - 0.00 in0.0 mm 0.00 in0.0 mm
11:50 AM 49.1°F9.5°C 46.6°F8.1°C 91% 6.9 mph N11.1 kmh N 9.2 mph14.8 kmh 29.92 in1013.2 mb - 0.00 in0.0 mm 0.00 in0.0 mm
11:55 AM 49.1°F9.5°C 46.6°F8.1°C 91% 3.5 mph N5.6 kmh N 9.2 mph14.8 kmh 29.91 in1012.9 mb - 0.00 in0.0 mm 0.00 in0.0 mm
12:00 PM 49.1°F9.5°C 46.6°F8.1°C 91% 5.8 mph N9.3 kmh N 10.4 mph16.7 kmh 29.91 in1012.9 mb - 0.00 in0.0 mm 0.00 in0.0 mm
12:10 PM 49.5°F9.7°C 47.0°F8.3°C 91% 4.6 mph N7.4 kmh N 5.8 mph9.3 kmh 29.91 in1012.9 mb - 0.00 in0.0 mm 0.00 in0.0 mm
12:15 PM 49.7°F9.8°C 47.2°F8.4°C 91% 4.6 mph N7.4 kmh N 4.6 mph7.4 kmh 29.90 in1012.5 mb - 0.00 in0.0 mm 0.00 in0.0 mm
12:20 PM 50.0°F10.0°C 47.2°F8.4°C 90% 3.5 mph N5.6 kmh N 8.1 mph13.0 kmh 29.89 in1012.2 mb - 0.00 in0.0 mm 0.00 in0.0 mm
12:25 PM 50.1°F10.1°C 47.3°F8.5°C 90% 2.3 mph N3.7 kmh N 10.4 mph16.7 kmh 29.89 in1012.2 mb - 0.00 in0.0 mm 0.00 in0.0 mm
12:30 PM 50.3°F10.2°C 47.5°F8.6°C 90% 3.5 mph N5.6 kmh N 8.1 mph13.0 kmh 29.88 in1011.9 mb - 0.00 in0.0 mm 0.00 in0.0 mm
12:35 PM 50.4°F10.2°C 47.3°F8.5°C 89% 2.3 mph N3.7 kmh N 4.6 mph7.4 kmh 29.88 in1011.9 mb - 0.00 in0.0 mm 0.00 in0.0 mm
12:40 PM 50.7°F10.4°C 47.3°F8.5°C 88% 4.6 mph N7.4 kmh N 8.1 mph13.0 kmh 29.87 in1011.5 mb - 0.00 in0.0 mm 0.00 in0.0 mm
12:45 PM 50.9°F10.5°C 47.2°F8.4°C 87% 1.2 mph N1.9 kmh N 5.8 mph9.3 kmh 29.87 in1011.5 mb - 0.00 in0.0 mm 0.00 in0.0 mm
12:50 PM 51.2°F10.7°C 47.2°F8.4°C 86% Calm Calm -- 29.86 in1011.2 mb - 0.00 in0.0 mm 0.00 in0.0 mm
12:55 PM 51.5°F10.8°C 47.5°F8.6°C 86% Calm Calm -- 29.86 in1011.2 mb - 0.00 in0.0 mm 0.00 in0.0 mm
01:00 PM 51.9°F11.1°C 47.5°F8.6°C 85% 4.6 mph N7.4 kmh N 4.6 mph7.4 kmh 29.86 in1011.2 mb - 0.00 in0.0 mm 0.00 in0.0 mm
01:10 PM 52.8°F11.6°C 47.8°F8.8°C 83% 1.2 mph N1.9 kmh N 9.2 mph14.8 kmh 29.85 in1010.8 mb - 0.00 in0.0 mm 0.00 in0.0 mm
01:15 PM 53.3°F11.8°C 48.3°F9.1°C 83% 2.3 mph N3.7 kmh N 4.6 mph7.4 kmh 29.85 in1010.8 mb - 0.00 in0.0 mm 0.00 in0.0 mm
01:20 PM 53.7°F12.1°C 47.3°F8.5°C 79% 1.2 mph N1.9 kmh N 3.5 mph5.6 kmh 29.85 in1010.8 mb - 0.00 in0.0 mm 0.00 in0.0 mm
01:25 PM 54.0°F12.2°C 47.6°F8.7°C 79% 1.2 mph N1.9 kmh N 4.6 mph7.4 kmh 29.85 in1010.8 mb - 0.00 in0.0 mm 0.00 in0.0 mm
01:30 PM 54.1°F12.3°C 47.1°F8.4°C 77% 4.6 mph N7.4 kmh N 5.8 mph9.3 kmh 29.85 in1010.8 mb - 0.00 in0.0 mm 0.00 in0.0 mm
01:35 PM 54.3°F12.4°C 46.9°F8.3°C 76% 4.6 mph N7.4 kmh N 9.2 mph14.8 kmh 29.85 in1010.8 mb - 0.00 in0.0 mm 0.00 in0.0 mm
01:40 PM 54.2°F12.3°C 46.4°F8.0°C 75% 5.8 mph N9.3 kmh N 4.6 mph7.4 kmh 29.84 in1010.5 mb - 0.00 in0.0 mm 0.00 in0.0 mm
01:45 PM 54.2°F12.3°C 46.4°F8.0°C 75% 2.3 mph N3.7 kmh N 5.8 mph9.3 kmh 29.84 in1010.5 mb - 0.00 in0.0 mm 0.00 in0.0 mm
01:50 PM 54.2°F12.3°C 46.4°F8.0°C 75% 4.6 mph N7.4 kmh N 8.1 mph13.0 kmh 29.84 in1010.5 mb - 0.00 in0.0 mm 0.00 in0.0 mm
01:55 PM 54.3°F12.4°C 46.5°F8.1°C 75% 2.3 mph N3.7 kmh N 11.5 mph18.5 kmh 29.84 in1010.5 mb - 0.00 in0.0 mm 0.00 in0.0 mm
02:00 PM 54.3°F12.4°C 46.6°F8.1°C 75% 2.3 mph N3.7 kmh N 5.8 mph9.3 kmh 29.83 in1010.2 mb - 0.00 in0.0 mm 0.00 in0.0 mm
02:10 PM 54.6°F12.6°C 46.5°F8.1°C 74% 1.2 mph N1.9 kmh N 1.2 mph1.9 kmh 29.82 in1009.8 mb - 0.00 in0.0 mm 0.00 in0.0 mm
02:15 PM 54.8°F12.7°C 46.7°F8.2°C 74% Calm Calm 1.2 mph1.9 kmh 29.82 in1009.8 mb - 0.00 in0.0 mm 0.00 in0.0 mm
02:20 PM 55.0°F12.8°C 46.8°F8.2°C 74% 1.2 mph N1.9 kmh N 8.1 mph13.0 kmh 29.82 in1009.8 mb - 0.00 in0.0 mm 0.00 in0.0 mm
02:25 PM 55.1°F12.8°C 46.6°F8.1°C 73% 1.2 mph N1.9 kmh N 3.5 mph5.6 kmh 29.81 in1009.5 mb - 0.00 in0.0 mm 0.00 in0.0 mm
02:30 PM 55.3°F12.9°C 46.8°F8.2°C 73% 1.2 mph N1.9 kmh N 1.2 mph1.9 kmh 29.82 in1009.8 mb - 0.00 in0.0 mm 0.00 in0.0 mm
02:35 PM 55.3°F12.9°C 46.8°F8.2°C 73% Calm Calm -- 29.81 in1009.5 mb - 0.00 in0.0 mm 0.00 in0.0 mm
02:40 PM 55.4°F13.0°C 46.9°F8.3°C 73% Calm Calm 1.2 mph1.9 kmh 29.81 in1009.5 mb - 0.00 in0.0 mm 0.00 in0.0 mm
02:45 PM 55.5°F13.1°C 47.0°F8.3°C 73% 1.2 mph N1.9 kmh N 1.2 mph1.9 kmh 29.81 in1009.5 mb - 0.00 in0.0 mm 0.00 in0.0 mm
02:50 PM 55.6°F13.1°C 46.7°F8.2°C 72% Calm Calm 1.2 mph1.9 kmh 29.81 in1009.5 mb - 0.00 in0.0 mm 0.00 in0.0 mm
02:55 PM 55.7°F13.2°C 46.8°F8.2°C 72% Calm Calm -- 29.81 in1009.5 mb - 0.00 in0.0 mm 0.00 in0.0 mm
03:00 PM 55.8°F13.2°C 47.3°F8.5°C 73% 3.5 mph N5.6 kmh N 4.6 mph7.4 kmh 29.81 in1009.5 mb - 0.00 in0.0 mm 0.00 in0.0 mm
03:10 PM 56.0°F13.3°C 47.1°F8.4°C 72% 1.2 mph N1.9 kmh N 1.2 mph1.9 kmh 29.81 in1009.5 mb - 0.00 in0.0 mm 0.00 in0.0 mm
03:15 PM 56.1°F13.4°C 46.9°F8.3°C 71% Calm Calm -- 29.81 in1009.5 mb - 0.00 in0.0 mm 0.00 in0.0 mm
03:20 PM 56.2°F13.4°C 46.9°F8.3°C 71% Calm Calm -- 29.80 in1009.1 mb - 0.00 in0.0 mm 0.00 in0.0 mm
03:25 PM 56.3°F13.5°C 47.0°F8.3°C 71% 1.2 mph N1.9 kmh N 5.8 mph9.3 kmh 29.80 in1009.1 mb - 0.00 in0.0 mm 0.00 in0.0 mm
03:30 PM 56.2°F13.4°C 46.9°F8.3°C 71% 1.2 mph N1.9 kmh N 5.8 mph9.3 kmh 29.80 in1009.1 mb - 0.00 in0.0 mm 0.00 in0.0 mm
03:35 PM 56.0°F13.3°C 46.7°F8.2°C 71% Calm Calm -- 29.80 in1009.1 mb - 0.00 in0.0 mm 0.00 in0.0 mm
03:40 PM 55.8°F13.2°C 46.5°F8.1°C 71% Calm Calm -- 29.80 in1009.1 mb - 0.00 in0.0 mm 0.00 in0.0 mm
03:45 PM 55.6°F13.1°C 46.7°F8.2°C 72% Calm Calm -- 29.79 in1008.8 mb - 0.00 in0.0 mm 0.00 in0.0 mm
03:50 PM 55.4°F13.0°C 46.5°F8.1°C 72% Calm Calm 1.2 mph1.9 kmh 29.79 in1008.8 mb - 0.00 in0.0 mm 0.00 in0.0 mm
03:55 PM 55.2°F12.9°C 46.3°F7.9°C 72% Calm Calm -- 29.79 in1008.8 mb - 0.00 in0.0 mm 0.00 in0.0 mm
04:00 PM 55.0°F12.8°C 46.5°F8.1°C 73% Calm Calm 1.2 mph1.9 kmh 29.79 in1008.8 mb - 0.00 in0.0 mm 0.00 in0.0 mm
04:10 PM 54.4°F12.4°C 46.3°F7.9°C 74% Calm Calm -- 29.78 in1008.5 mb - 0.00 in0.0 mm 0.00 in0.0 mm
04:15 PM 54.2°F12.3°C 46.1°F7.8°C 74% Calm Calm -- 29.78 in1008.5 mb - 0.00 in0.0 mm 0.00 in0.0 mm
04:20 PM 54.0°F12.2°C 45.9°F7.7°C 74% Calm Calm -- 29.78 in1008.5 mb - 0.00 in0.0 mm 0.00 in0.0 mm
04:25 PM 53.7°F12.1°C 45.6°F7.6°C 74% 2.3 mph N3.7 kmh N 8.1 mph13.0 kmh 29.78 in1008.5 mb - 0.00 in0.0 mm 0.00 in0.0 mm
04:30 PM 53.5°F11.9°C 45.8°F7.7°C 75% Calm Calm 1.2 mph1.9 kmh 29.78 in1008.5 mb - 0.00 in0.0 mm 0.00 in0.0 mm
04:35 PM 53.5°F11.9°C 45.8°F7.7°C 75% 3.5 mph N5.6 kmh N 4.6 mph7.4 kmh 29.78 in1008.5 mb - 0.00 in0.0 mm 0.00 in0.0 mm
04:40 PM 53.5°F11.9°C 45.4°F7.4°C 74% 2.3 mph N3.7 kmh N 3.5 mph5.6 kmh 29.78 in1008.5 mb - 0.00 in0.0 mm 0.00 in0.0 mm
04:45 PM 53.6°F12.0°C 45.5°F7.5°C 74% 2.3 mph N3.7 kmh N 3.5 mph5.6 kmh 29.77 in1008.1 mb - 0.00 in0.0 mm 0.00 in0.0 mm
04:50 PM 53.6°F12.0°C 45.5°F7.5°C 74% 4.6 mph N7.4 kmh N 4.6 mph7.4 kmh 29.77 in1008.1 mb - 0.00 in0.0 mm 0.00 in0.0 mm
04:55 PM 53.7°F12.1°C 45.2°F7.3°C 73% Calm Calm -- 29.77 in1008.1 mb - 0.00 in0.0 mm 0.00 in0.0 mm
05:00 PM 53.7°F12.1°C 45.3°F7.4°C 73% 2.3 mph N3.7 kmh N 5.8 mph9.3 kmh 29.77 in1008.1 mb - 0.00 in0.0 mm 0.00 in0.0 mm
05:10 PM 53.8°F12.1°C 45.0°F7.2°C 72% 1.2 mph N1.9 kmh N 9.2 mph14.8 kmh 29.77 in1008.1 mb - 0.00 in0.0 mm 0.00 in0.0 mm
05:15 PM 53.8°F12.1°C 45.0°F7.2°C 72% 3.5 mph N5.6 kmh N 5.8 mph9.3 kmh 29.77 in1008.1 mb - 0.00 in0.0 mm 0.00 in0.0 mm
05:20 PM 53.8°F12.1°C 45.0°F7.2°C 72% 1.2 mph N1.9 kmh N 3.5 mph5.6 kmh 29.77 in1008.1 mb - 0.00 in0.0 mm 0.00 in0.0 mm
05:25 PM 53.7°F12.1°C 44.9°F7.2°C 72% 3.5 mph N5.6 kmh N 5.8 mph9.3 kmh 29.77 in1008.1 mb - 0.00 in0.0 mm 0.00 in0.0 mm
05:30 PM 53.6°F12.0°C 44.8°F7.1°C 72% 1.2 mph N1.9 kmh N 4.6 mph7.4 kmh 29.77 in1008.1 mb - 0.00 in0.0 mm 0.00 in0.0 mm
05:35 PM 53.6°F12.0°C 44.8°F7.1°C 72% 1.2 mph N1.9 kmh N 8.1 mph13.0 kmh 29.77 in1008.1 mb - 0.00 in0.0 mm 0.00 in0.0 mm
05:40 PM 53.5°F11.9°C 44.7°F7.1°C 72% 1.2 mph N1.9 kmh N 1.2 mph1.9 kmh 29.77 in1008.1 mb - 0.00 in0.0 mm 0.00 in0.0 mm
05:45 PM 53.3°F11.8°C 44.5°F6.9°C 72% Calm Calm 1.2 mph1.9 kmh 29.77 in1008.1 mb - 0.00 in0.0 mm 0.00 in0.0 mm
05:50 PM 53.2°F11.8°C 44.4°F6.9°C 72% Calm Calm -- 29.77 in1008.1 mb - 0.00 in0.0 mm 0.00 in0.0 mm
05:55 PM 53.0°F11.7°C 44.2°F6.8°C 72% 1.2 mph N1.9 kmh N 5.8 mph9.3 kmh 29.77 in1008.1 mb - 0.00 in0.0 mm 0.00 in0.0 mm
06:00 PM 52.8°F11.6°C 44.0°F6.7°C 72% Calm Calm -- 29.77 in1008.1 mb - 0.00 in0.0 mm 0.00 in0.0 mm
06:10 PM 52.4°F11.3°C 44.0°F6.7°C 73% Calm Calm 3.5 mph5.6 kmh 29.77 in1008.1 mb - 0.00 in0.0 mm 0.00 in0.0 mm
06:15 PM 52.3°F11.3°C 43.9°F6.6°C 73% Calm Calm 4.6 mph7.4 kmh 29.76 in1007.8 mb - 0.00 in0.0 mm 0.00 in0.0 mm
06:20 PM 52.3°F11.3°C 43.9°F6.6°C 73% 1.2 mph N1.9 kmh N 4.6 mph7.4 kmh 29.76 in1007.8 mb - 0.00 in0.0 mm 0.00 in0.0 mm
06:25 PM 52.4°F11.3°C 44.0°F6.7°C 73% 1.2 mph N1.9 kmh N 3.5 mph5.6 kmh 29.76 in1007.8 mb - 0.00 in0.0 mm 0.00 in0.0 mm
06:30 PM 52.6°F11.4°C 44.2°F6.8°C 73% Calm Calm -- 29.76 in1007.8 mb - 0.00 in0.0 mm 0.00 in0.0 mm
06:35 PM 52.7°F11.5°C 44.3°F6.8°C 73% Calm Calm 1.2 mph1.9 kmh 29.76 in1007.8 mb - 0.00 in0.0 mm 0.00 in0.0 mm
06:40 PM 52.7°F11.5°C 44.6°F7.0°C 74% Calm Calm 4.6 mph7.4 kmh 29.76 in1007.8 mb - 0.00 in0.0 mm 0.00 in0.0 mm
06:45 PM 52.6°F11.4°C 44.9°F7.2°C 75% 1.2 mph N1.9 kmh N -- 29.75 in1007.5 mb - 0.00 in0.0 mm 0.00 in0.0 mm
06:50 PM 52.5°F11.4°C 44.8°F7.1°C 75% Calm Calm -- 29.75 in1007.5 mb - 0.00 in0.0 mm 0.00 in0.0 mm
06:55 PM 52.3°F11.3°C 45.0°F7.2°C 76% 2.3 mph N3.7 kmh N 5.8 mph9.3 kmh 29.75 in1007.5 mb - 0.00 in0.0 mm 0.00 in0.0 mm
07:00 PM 52.2°F11.2°C 44.9°F7.2°C 76% 3.5 mph N5.6 kmh N 8.1 mph13.0 kmh 29.75 in1007.5 mb - 0.00 in0.0 mm 0.00 in0.0 mm
07:10 PM 52.6°F11.4°C 45.2°F7.3°C 76% 2.3 mph N3.7 kmh N 8.1 mph13.0 kmh 29.75 in1007.5 mb - 0.00 in0.0 mm 0.00 in0.0 mm
07:15 PM 52.7°F11.5°C 45.3°F7.4°C 76% 4.6 mph N7.4 kmh N 8.1 mph13.0 kmh 29.75 in1007.5 mb - 0.00 in0.0 mm 0.00 in0.0 mm
07:20 PM 52.7°F11.5°C 45.0°F7.2°C 75% 2.3 mph N3.7 kmh N 4.6 mph7.4 kmh 29.74 in1007.1 mb - 0.00 in0.0 mm 0.00 in0.0 mm
07:25 PM 52.8°F11.6°C 45.1°F7.3°C 75% 3.5 mph N5.6 kmh N 5.8 mph9.3 kmh 29.74 in1007.1 mb - 0.00 in0.0 mm 0.00 in0.0 mm
07:30 PM 52.8°F11.6°C 45.1°F7.3°C 75% 4.6 mph N7.4 kmh N 4.6 mph7.4 kmh 29.74 in1007.1 mb - 0.00 in0.0 mm 0.00 in0.0 mm
07:35 PM 52.9°F11.6°C 45.2°F7.3°C 75% 2.3 mph N3.7 kmh N 4.6 mph7.4 kmh 29.74 in1007.1 mb - 0.00 in0.0 mm 0.00 in0.0 mm
07:40 PM 52.9°F11.6°C 45.5°F7.5°C 76% 3.5 mph N5.6 kmh N 4.6 mph7.4 kmh 29.73 in1006.8 mb - 0.00 in0.0 mm 0.00 in0.0 mm
07:45 PM 52.9°F11.6°C 45.5°F7.5°C 76% 2.3 mph N3.7 kmh N 8.1 mph13.0 kmh 29.73 in1006.8 mb - 0.00 in0.0 mm 0.00 in0.0 mm
07:50 PM 52.8°F11.6°C 45.8°F7.7°C 77% 4.6 mph N7.4 kmh N 5.8 mph9.3 kmh 29.73 in1006.8 mb - 0.00 in0.0 mm 0.00 in0.0 mm
07:55 PM 52.6°F11.4°C 45.6°F7.6°C 77% 1.2 mph N1.9 kmh N 4.6 mph7.4 kmh 29.73 in1006.8 mb - 0.00 in0.0 mm 0.00 in0.0 mm
08:00 PM 52.4°F11.3°C 45.4°F7.4°C 77% 2.3 mph N3.7 kmh N 5.8 mph9.3 kmh 29.73 in1006.8 mb - 0.00 in0.0 mm 0.00 in0.0 mm
08:10 PM 52.1°F11.2°C 45.4°F7.4°C 78% 3.5 mph N5.6 kmh N 4.6 mph7.4 kmh 29.72 in1006.4 mb - 0.00 in0.0 mm 0.00 in0.0 mm
08:15 PM 52.0°F11.1°C 45.4°F7.4°C 78% Calm Calm 1.2 mph1.9 kmh 29.72 in1006.4 mb - 0.00 in0.0 mm 0.00 in0.0 mm
08:20 PM 52.0°F11.1°C 45.3°F7.4°C 78% Calm Calm 1.2 mph1.9 kmh 29.71 in1006.1 mb - 0.00 in0.0 mm 0.00 in0.0 mm
08:25 PM 51.9°F11.1°C 45.3°F7.4°C 78% Calm Calm -- 29.71 in1006.1 mb - 0.00 in0.0 mm 0.00 in0.0 mm
08:30 PM 51.8°F11.0°C 45.2°F7.3°C 78% 2.3 mph N3.7 kmh N 4.6 mph7.4 kmh 29.71 in1006.1 mb - 0.00 in0.0 mm 0.00 in0.0 mm
08:35 PM 51.7°F10.9°C 45.1°F7.3°C 78% Calm Calm 5.8 mph9.3 kmh 29.70 in1005.8 mb - 0.00 in0.0 mm 0.00 in0.0 mm
08:40 PM 51.6°F10.9°C 45.3°F7.4°C 79% Calm Calm 3.5 mph5.6 kmh 29.70 in1005.8 mb - 0.00 in0.0 mm 0.00 in0.0 mm
08:45 PM 51.5°F10.8°C 45.2°F7.3°C 79% 4.6 mph N7.4 kmh N 4.6 mph7.4 kmh 29.70 in1005.8 mb - 0.00 in0.0 mm 0.00 in0.0 mm
08:50 PM 51.4°F10.8°C 45.1°F7.3°C 79% 5.8 mph N9.3 kmh N 16.1 mph25.9 kmh 29.70 in1005.8 mb - 0.00 in0.0 mm 0.00 in0.0 mm
08:55 PM 51.5°F10.8°C 45.2°F7.3°C 79% 4.6 mph N7.4 kmh N 5.8 mph9.3 kmh 29.69 in1005.4 mb - 0.00 in0.0 mm 0.00 in0.0 mm
09:00 PM 51.7°F10.9°C 45.4°F7.4°C 79% 5.8 mph N9.3 kmh N 8.1 mph13.0 kmh 29.69 in1005.4 mb - 0.00 in0.0 mm 0.00 in0.0 mm
09:10 PM 52.2°F11.2°C 45.6°F7.6°C 78% 2.3 mph N3.7 kmh N 8.1 mph13.0 kmh 29.68 in1005.1 mb - 0.00 in0.0 mm 0.00 in0.0 mm
09:15 PM 52.4°F11.3°C 45.4°F7.4°C 77% 3.5 mph N5.6 kmh N 5.8 mph9.3 kmh 29.68 in1005.1 mb - 0.00 in0.0 mm 0.00 in0.0 mm
09:20 PM 52.5°F11.4°C 45.5°F7.5°C 77% 4.6 mph N7.4 kmh N 9.2 mph14.8 kmh 29.68 in1005.1 mb - 0.00 in0.0 mm 0.00 in0.0 mm
09:25 PM 52.6°F11.4°C 45.6°F7.6°C 77% 6.9 mph N11.1 kmh N 8.1 mph13.0 kmh 29.68 in1005.1 mb - 0.00 in0.0 mm 0.00 in0.0 mm
09:30 PM 52.7°F11.5°C 45.7°F7.6°C 77% 3.5 mph N5.6 kmh N 9.2 mph14.8 kmh 29.67 in1004.7 mb - 0.00 in0.0 mm 0.00 in0.0 mm
09:35 PM 52.7°F11.5°C 45.7°F7.6°C 77% Calm Calm -- 29.67 in1004.7 mb - 0.00 in0.0 mm 0.00 in0.0 mm
09:40 PM 52.6°F11.4°C 45.6°F7.6°C 77% Calm Calm -- 29.67 in1004.7 mb - 0.00 in0.0 mm 0.00 in0.0 mm
09:45 PM 52.4°F11.3°C 45.4°F7.4°C 77% 1.2 mph N1.9 kmh N 3.5 mph5.6 kmh 29.67 in1004.7 mb - 0.00 in0.0 mm 0.00 in0.0 mm
09:50 PM 52.2°F11.2°C 45.6°F7.6°C 78% 6.9 mph N11.1 kmh N 8.1 mph13.0 kmh 29.67 in1004.7 mb - 0.00 in0.0 mm 0.00 in0.0 mm
09:55 PM 52.1°F11.2°C 45.4°F7.4°C 78% 2.3 mph N3.7 kmh N 3.5 mph5.6 kmh 29.66 in1004.4 mb - 0.00 in0.0 mm 0.00 in0.0 mm
10:00 PM 52.0°F11.1°C 45.4°F7.4°C 78% 1.2 mph N1.9 kmh N 4.6 mph7.4 kmh 29.66 in1004.4 mb - 0.00 in0.0 mm 0.00 in0.0 mm
10:10 PM 51.9°F11.1°C 45.3°F7.4°C 78% Calm Calm 1.2 mph1.9 kmh 29.65 in1004.1 mb - 0.00 in0.0 mm 0.00 in0.0 mm
10:15 PM 51.8°F11.0°C 45.2°F7.3°C 78% Calm Calm 3.5 mph5.6 kmh 29.64 in1003.7 mb - 0.00 in0.0 mm 0.00 in0.0 mm
10:20 PM 51.6°F10.9°C 45.0°F7.2°C 78% 1.2 mph N1.9 kmh N 3.5 mph5.6 kmh 29.64 in1003.7 mb - 0.00 in0.0 mm 0.00 in0.0 mm
10:25 PM 51.5°F10.8°C 45.2°F7.3°C 79% 1.2 mph N1.9 kmh N 4.6 mph7.4 kmh 29.64 in1003.7 mb - 0.00 in0.0 mm 0.00 in0.0 mm
10:30 PM 51.5°F10.8°C 45.2°F7.3°C 79% 2.3 mph N3.7 kmh N 4.6 mph7.4 kmh 29.64 in1003.7 mb - 0.00 in0.0 mm 0.00 in0.0 mm
10:35 PM 51.4°F10.8°C 44.8°F7.1°C 78% 1.2 mph N1.9 kmh N 5.8 mph9.3 kmh 29.64 in1003.7 mb - 0.00 in0.0 mm 0.00 in0.0 mm
10:40 PM 51.2°F10.7°C 44.6°F7.0°C 78% 1.2 mph N1.9 kmh N -- 29.63 in1003.4 mb - 0.00 in0.0 mm 0.00 in0.0 mm
10:45 PM 51.0°F10.6°C 44.7°F7.1°C 79% Calm Calm 1.2 mph1.9 kmh 29.63 in1003.4 mb - 0.00 in0.0 mm 0.00 in0.0 mm
10:50 PM 50.7°F10.4°C 44.4°F6.9°C 79% Calm Calm -- 29.62 in1003.0 mb - 0.00 in0.0 mm 0.00 in0.0 mm
10:55 PM 50.5°F10.3°C 44.2°F6.8°C 79% Calm Calm 1.2 mph1.9 kmh 29.62 in1003.0 mb - 0.00 in0.0 mm 0.00 in0.0 mm
11:00 PM 50.3°F10.2°C 44.4°F6.9°C 80% Calm Calm -- 29.62 in1003.0 mb - 0.00 in0.0 mm 0.00 in0.0 mm
11:10 PM 50.0°F10.0°C 44.1°F6.7°C 80% 1.2 mph N1.9 kmh N 1.2 mph1.9 kmh 29.60 in1002.4 mb - 0.00 in0.0 mm 0.00 in0.0 mm
11:15 PM 49.8°F9.9°C 43.9°F6.6°C 80% 3.5 mph N5.6 kmh N 5.8 mph9.3 kmh 29.60 in1002.4 mb - 0.00 in0.0 mm 0.00 in0.0 mm
11:20 PM 49.7°F9.8°C 43.8°F6.6°C 80% 1.2 mph N1.9 kmh N 10.4 mph16.7 kmh 29.59 in1002.0 mb - 0.00 in0.0 mm 0.00 in0.0 mm
11:25 PM 50.0°F10.0°C 44.1°F6.7°C 80% 4.6 mph N7.4 kmh N 4.6 mph7.4 kmh 29.59 in1002.0 mb - 0.00 in0.0 mm 0.00 in0.0 mm
11:30 PM 50.3°F10.2°C 44.4°F6.9°C 80% 4.6 mph N7.4 kmh N 8.1 mph13.0 kmh 29.59 in1002.0 mb - 0.00 in0.0 mm 0.00 in0.0 mm
11:35 PM 50.6°F10.3°C 44.3°F6.8°C 79% 1.2 mph N1.9 kmh N 5.8 mph9.3 kmh 29.58 in1001.7 mb - 0.00 in0.0 mm 0.00 in0.0 mm
11:40 PM 50.7°F10.4°C 44.1°F6.7°C 78% Calm Calm -- 29.58 in1001.7 mb - 0.00 in0.0 mm 0.00 in0.0 mm
11:45 PM 50.8°F10.4°C 44.2°F6.8°C 78% 4.6 mph N7.4 kmh N 4.6 mph7.4 kmh 29.57 in1001.4 mb - 0.00 in0.0 mm 0.00 in0.0 mm
11:50 PM 50.8°F10.4°C 44.2°F6.8°C 78% 4.6 mph N7.4 kmh N 8.1 mph13.0 kmh 29.57 in1001.4 mb - 0.00 in0.0 mm 0.00 in0.0 mm
11:55 PM 50.8°F10.4°C 43.8°F6.6°C 77% 3.5 mph N5.6 kmh N 8.1 mph13.0 kmh 29.57 in1001.4 mb - 0.00 in0.0 mm 0.00 in0.0 mm